Time;durP1;ratioP1;P1;durP2;ratioP2;P2;SDS_P1;SDS_P2;PMS_P1;PMS_P2;Temp;Humidity;BMP_temperature;BMP_pressure;BME280_temperature;BME280_humidity;BME280_pressure;Samples;Min_cycle;Max_cycle;Signal;HPM_P1;HPM_P2
2020/12/06 00:00:04;;;;;;;;;;;;;;;;;;4992897;28;19918;-48
2020/12/06 00:02:29;;;;;;;;;;;;;;;;;;4993988;28;20335;-50
2020/12/06 00:04:54;;;;;;;;;;;;;;;;;;4994657;28;19964;-49
2020/12/06 00:07:19;;;;;;;;;;;;;;;;;;4994492;28;19914;-50
2020/12/06 00:09:44;;;;;;;;;;;;;;;;;;4992098;28;19949;-48
2020/12/06 00:12:09;;;;;;;;;;;;;;;;;;4991577;28;19914;-49
2020/12/06 00:14:34;;;;;;;;;;;;;;;;;;4994420;28;19914;-48
2020/12/06 00:17:00;;;;;;;;;;;;;;;;;;4994328;28;19914;-50
2020/12/06 00:19:25;;;;;;;;;;;;;;;;;;4994263;28;19917;-48
2020/12/06 00:21:50;;;;;;;;;;;;;;;;;;4994400;28;20013;-45
2020/12/06 00:24:16;;;;;;;;;;;;;;;;;;4993762;28;19997;-49
2020/12/06 00:26:41;;;;;;;;;;;;;;;;;;4994353;28;19968;-48
2020/12/06 00:29:06;;;;;;;;;;;;;;;;;;4994025;28;20029;-49
2020/12/06 00:31:31;;;;;;;;;;;;;;;;;;4994067;28;19910;-49
2020/12/06 00:33:56;;;;;;;;;;;;;;;;;;4993431;28;19909;-49
2020/12/06 00:36:21;;;;;;;;;;;;;;;;;;4994086;28;19910;-48
2020/12/06 00:38:47;;;;;;;;;;;;;;;;;;4993882;28;19961;-49
2020/12/06 00:41:12;;;;;;;;;;;;;;;;;;4993928;28;19935;-49
2020/12/06 00:43:37;;;;;;;;;;;;;;;;;;4993120;28;19922;-48
2020/12/06 00:46:03;;;;;;;;;;;;;;;;;;4993817;28;20004;-49
2020/12/06 00:48:28;;;;;;;;;;;;;;;;;;4993873;28;19918;-48
2020/12/06 00:50:53;;;;;;;;;;;;;;;;;;4993772;28;19914;-47
2020/12/06 00:53:18;;;;;;;;;;;;;;;;;;4992970;28;19975;-51
2020/12/06 00:55:43;;;;;;;;;;;;;;;;;;4993705;28;19910;-48
2020/12/06 00:58:08;;;;;;;;;;;;;;;;;;4991801;28;19921;-51
2020/12/06 01:00:33;;;;;;;;;;;;;;;;;;4993518;28;19947;-49
2020/12/06 01:02:58;;;;;;;;;;;;;;;;;;4992874;28;19952;-51
2020/12/06 01:05:23;;;;;;;;;;;;;;;;;;4993470;28;19952;-48
2020/12/06 01:07:49;;;;;;;;;;;;;;;;;;4992966;28;20007;-49
2020/12/06 01:10:14;;;;;;;;;;;;;;;;;;4992174;28;19961;-48
2020/12/06 01:12:39;;;;;;;;;;;;;;;;;;4992633;28;19984;-48
2020/12/06 01:15:04;;;;;;;;;;;;;;;;;;4993308;28;19913;-48
2020/12/06 01:17:29;;;;;;;;;;;;;;;;;;4993248;28;19918;-49
2020/12/06 01:19:54;;;;;;;;;;;;;;;;;;4993229;28;20286;-48
2020/12/06 01:22:19;;;;;;;;;;;;;;;;;;4992566;28;20009;-49
2020/12/06 01:24:44;;;;;;;;;;;;;;;;;;4993214;28;20005;-48
2020/12/06 01:27:10;;;;;;;;;;;;;;;;;;4993102;28;20291;-49
2020/12/06 01:29:35;;;;;;;;;;;;;;;;;;4991717;28;19948;-49
2020/12/06 01:32:00;;;;;;;;;;;;;;;;;;4992397;28;20331;-49
2020/12/06 01:34:25;;;;;;;;;;;;;;;;;;4993049;28;19910;-47
2020/12/06 01:36:51;;;;;;;;;;;;;;;;;;4993000;28;19910;-48
2020/12/06 01:39:16;;;;;;;;;;;;;;;;;;4992903;28;20260;-49
2020/12/06 01:41:41;;;;;;;;;;;;;;;;;;4993000;28;20338;-49
2020/12/06 01:44:06;;;;;;;;;;;;;;;;;;4992189;28;20298;-49
2020/12/06 01:46:31;;;;;;;;;;;;;;;;;;4991704;28;20352;-48
2020/12/06 01:48:56;;;;;;;;;;;;;;;;;;4992665;28;20382;-49
2020/12/06 01:51:21;;;;;;;;;;;;;;;;;;4992853;28;19925;-48
2020/12/06 01:53:46;;;;;;;;;;;;;;;;;;4992205;28;20287;-49
2020/12/06 01:56:11;;;;;;;;;;;;;;;;;;4992794;28;20379;-50
2020/12/06 01:58:37;;;;;;;;;;;;;;;;;;4990756;28;20390;-48
2020/12/06 02:01:02;;;;;;;;;;;;;;;;;;4992730;28;20077;-50
2020/12/06 02:03:27;;;;;;;;;;;;;;;;;;4992331;28;20271;-48
2020/12/06 02:05:52;;;;;;;;;;;;;;;;;;4992704;28;20273;-50
2020/12/06 02:08:17;;;;;;;;;;;;;;;;;;4992690;28;19906;-47
2020/12/06 02:10:42;;;;;;;;;;;;;;;;;;4992583;28;19913;-49
2020/12/06 02:13:07;;;;;;;;;;;;;;;;;;4991858;28;19906;-48
2020/12/06 02:15:34;;;;;;;;;;;;;;;;;;4992931;28;20325;-48
2020/12/06 02:17:59;;;;;;;;;;;;;;;;;;4993159;28;19913;-48
2020/12/06 02:20:24;;;;;;;;;;;;;;;;;;4995978;28;19909;-48
2020/12/06 02:22:49;;;;;;;;;;;;;;;;;;4995884;28;20294;-49
2020/12/06 02:25:14;;;;;;;;;;;;;;;;;;4996469;28;20256;-48
2020/12/06 02:27:39;;;;;;;;;;;;;;;;;;4996745;28;20385;-49
2020/12/06 02:30:04;;;;;;;;;;;;;;;;;;4996341;28;20563;-49
2020/12/06 02:32:29;;;;;;;;;;;;;;;;;;4995704;28;20386;-49
2020/12/06 02:34:54;;;;;;;;;;;;;;;;;;4996306;28;20387;-52
2020/12/06 02:37:20;;;;;;;;;;;;;;;;;;4996179;28;19922;-48
2020/12/06 02:39:45;;;;;;;;;;;;;;;;;;4996177;28;19909;-50
2020/12/06 02:42:10;;;;;;;;;;;;;;;;;;4995592;28;20440;-48
2020/12/06 02:44:35;;;;;;;;;;;;;;;;;;4995983;28;20385;-49
2020/12/06 02:47:00;;;;;;;;;;;;;;;;;;4996159;28;19910;-48
2020/12/06 02:49:25;;;;;;;;;;;;;;;;;;4995770;28;20024;-49
2020/12/06 02:51:50;;;;;;;;;;;;;;;;;;4995859;28;20005;-46
2020/12/06 02:54:15;;;;;;;;;;;;;;;;;;4994065;28;20004;-50
2020/12/06 02:56:40;;;;;;;;;;;;;;;;;;4995945;28;20009;-49
2020/12/06 02:59:05;;;;;;;;;;;;;;;;;;4994535;28;20012;-50
2020/12/06 03:01:31;;;;;;;;;;;;;;;;;;4995845;28;20013;-48
2020/12/06 03:03:56;;;;;;;;;;;;;;;;;;4995112;28;20004;-49
2020/12/06 03:06:21;;;;;;;;;;;;;;;;;;4996042;28;20004;-48
2020/12/06 03:08:46;;;;;;;;;;;;;;;;;;4995703;28;19917;-49
2020/12/06 03:11:11;;;;;;;;;;;;;;;;;;4995568;28;19914;-49
2020/12/06 03:13:36;;;;;;;;;;;;;;;;;;4994848;28;20059;-49
2020/12/06 03:16:01;;;;;;;;;;;;;;;;;;4995629;28;19996;-48
2020/12/06 03:18:26;;;;;;;;;;;;;;;;;;4995383;28;19921;-49
2020/12/06 03:20:51;;;;;;;;;;;;;;;;;;4995544;28;19910;-48
2020/12/06 03:23:17;;;;;;;;;;;;;;;;;;4993390;28;19910;-48
2020/12/06 03:25:42;;;;;;;;;;;;;;;;;;4995444;28;20096;-48
2020/12/06 03:28:07;;;;;;;;;;;;;;;;;;4995355;28;19910;-49
2020/12/06 03:30:32;;;;;;;;;;;;;;;;;;4994693;28;20256;-52
2020/12/06 03:32:57;;;;;;;;;;;;;;;;;;4994556;28;19910;-49
2020/12/06 03:35:22;;;;;;;;;;;;;;;;;;4995169;28;19952;-49
2020/12/06 03:37:47;;;;;;;;;;;;;;;;;;4993871;28;19914;-49
2020/12/06 03:40:12;;;;;;;;;;;;;;;;;;4995104;28;19909;-49
2020/12/06 03:42:37;;;;;;;;;;;;;;;;;;4992318;28;20005;-49
2020/12/06 03:45:03;;;;;;;;;;;;;;;;;;4993823;28;20367;-50
2020/12/06 03:47:28;;;;;;;;;;;;;;;;;;4995065;28;19992;-50
2020/12/06 03:49:53;;;;;;;;;;;;;;;;;;4994818;28;20295;-49
2020/12/06 03:52:19;;;;;;;;;;;;;;;;;;4994215;28;19933;-51
2020/12/06 03:54:44;;;;;;;;;;;;;;;;;;4993559;28;19936;-49
2020/12/06 03:57:09;;;;;;;;;;;;;;;;;;4994737;28;19914;-49
2020/12/06 03:59:34;;;;;;;;;;;;;;;;;;4992943;28;19916;-47
2020/12/06 04:01:59;;;;;;;;;;;;;;;;;;4994168;28;20367;-49
2020/12/06 04:04:24;;;;;;;;;;;;;;;;;;4994631;28;20286;-48
2020/12/06 04:06:49;;;;;;;;;;;;;;;;;;4994649;28;20378;-49
2020/12/06 04:09:14;;;;;;;;;;;;;;;;;;4994468;28;19910;-47
2020/12/06 04:11:39;;;;;;;;;;;;;;;;;;4993240;28;19936;-49
2020/12/06 04:14:05;;;;;;;;;;;;;;;;;;4993743;28;20290;-48
2020/12/06 04:16:30;;;;;;;;;;;;;;;;;;4994506;28;20367;-49
2020/12/06 04:18:55;;;;;;;;;;;;;;;;;;4994323;28;19921;-49
2020/12/06 04:21:20;;;;;;;;;;;;;;;;;;4994286;28;20041;-48
2020/12/06 04:23:45;;;;;;;;;;;;;;;;;;4992406;28;20008;-48
2020/12/06 04:26:10;;;;;;;;;;;;;;;;;;4994373;28;19910;-48
2020/12/06 04:28:35;;;;;;;;;;;;;;;;;;4994149;28;19925;-52
2020/12/06 04:31:00;;;;;;;;;;;;;;;;;;4994135;28;19910;-51
2020/12/06 04:33:25;;;;;;;;;;;;;;;;;;4993394;28;19920;-51
2020/12/06 04:35:51;;;;;;;;;;;;;;;;;;4993783;28;19917;-47
2020/12/06 04:38:16;;;;;;;;;;;;;;;;;;4994048;28;19913;-49
2020/12/06 04:40:41;;;;;;;;;;;;;;;;;;4993826;28;20425;-48
2020/12/06 04:43:06;;;;;;;;;;;;;;;;;;4992453;28;19910;-50
2020/12/06 04:45:31;;;;;;;;;;;;;;;;;;4993902;28;19914;-47
2020/12/06 04:47:56;;;;;;;;;;;;;;;;;;4993859;28;19918;-49
2020/12/06 04:50:21;;;;;;;;;;;;;;;;;;4993701;28;19925;-48
2020/12/06 04:52:46;;;;;;;;;;;;;;;;;;4993079;28;19997;-49
2020/12/06 04:55:12;;;;;;;;;;;;;;;;;;4992694;28;20327;-48
2020/12/06 04:57:37;;;;;;;;;;;;;;;;;;4992346;28;20008;-48
2020/12/06 05:00:02;;;;;;;;;;;;;;;;;;4991821;28;19936;-51
2020/12/06 05:02:27;;;;;;;;;;;;;;;;;;4991687;28;20109;-49
2020/12/06 05:04:52;;;;;;;;;;;;;;;;;;4993617;28;19910;-50
2020/12/06 05:07:18;;;;;;;;;;;;;;;;;;4993417;28;19913;-48
2020/12/06 05:09:43;;;;;;;;;;;;;;;;;;4993404;28;20304;-48
2020/12/06 05:12:08;;;;;;;;;;;;;;;;;;4992817;28;19921;-48
2020/12/06 05:14:33;;;;;;;;;;;;;;;;;;4993261;28;19910;-48
2020/12/06 05:16:58;;;;;;;;;;;;;;;;;;4993301;28;20264;-47
2020/12/06 05:19:23;;;;;;;;;;;;;;;;;;4993344;28;19916;-48
2020/12/06 05:21:48;;;;;;;;;;;;;;;;;;4993384;28;19956;-49
2020/12/06 05:24:14;;;;;;;;;;;;;;;;;;4992640;28;19957;-49
2020/12/06 05:26:39;;;;;;;;;;;;;;;;;;4993199;28;19914;-51
2020/12/06 05:29:04;;;;;;;;;;;;;;;;;;4992959;28;19910;-48
2020/12/06 05:31:29;;;;;;;;;;;;;;;;;;4993098;28;19972;-52
2020/12/06 05:33:54;;;;;;;;;;;;;;;;;;4991126;28;19914;-49
2020/12/06 05:36:19;;;;;;;;;;;;;;;;;;4993210;28;19909;-49
2020/12/06 05:38:44;;;;;;;;;;;;;;;;;;4992962;28;20331;-47
2020/12/06 05:41:09;;;;;;;;;;;;;;;;;;4992919;28;20371;-49
2020/12/06 05:43:34;;;;;;;;;;;;;;;;;;4990895;28;20355;-49
2020/12/06 05:46:00;;;;;;;;;;;;;;;;;;4992957;28;20060;-49
2020/12/06 05:48:25;;;;;;;;;;;;;;;;;;4992897;28;20423;-48
2020/12/06 05:50:50;;;;;;;;;;;;;;;;;;5032504;22;20402;-51
2020/12/06 05:53:15;;;;;;;;;;;;;;;;;;4992079;28;20437;-49
2020/12/06 05:55:40;;;;;;;;;;;;;;;;;;4992843;28;20474;-50
2020/12/06 05:58:05;;;;;;;;;;;;;;;;;;4991736;28;20012;-50
2020/12/06 06:00:30;;;;;;;;;;;;;;;;;;4992787;28;19910;-51
2020/12/06 06:02:55;;;;;;;;;;;;;;;;;;4992156;28;19917;-50
2020/12/06 06:05:20;;;;;;;;;;;;;;;;;;4992639;28;19910;-50
2020/12/06 06:07:46;;;;;;;;;;;;;;;;;;4991445;28;20267;-49
2020/12/06 06:10:11;;;;;;;;;;;;;;;;;;4992826;28;20308;-51
2020/12/06 06:12:36;;;;;;;;;;;;;;;;;;4992144;28;19933;-52
2020/12/06 06:15:01;;;;;;;;;;;;;;;;;;4992614;28;20283;-50
2020/12/06 06:17:26;;;;;;;;;;;;;;;;;;4992870;28;19918;-50
2020/12/06 06:19:51;;;;;;;;;;;;;;;;;;4991383;28;19910;-51
2020/12/06 06:22:16;;;;;;;;;;;;;;;;;;4992033;28;19969;-51
2020/12/06 06:24:42;;;;;;;;;;;;;;;;;;4992710;28;19949;-50
2020/12/06 06:27:07;;;;;;;;;;;;;;;;;;4992642;28;19957;-50
2020/12/06 06:29:32;;;;;;;;;;;;;;;;;;4992449;28;19960;-50
2020/12/06 06:31:57;;;;;;;;;;;;;;;;;;4991940;28;20007;-46
2020/12/06 06:34:22;;;;;;;;;;;;;;;;;;4992507;28;19957;-50
2020/12/06 06:36:47;;;;;;;;;;;;;;;;;;4992832;28;19941;-51
2020/12/06 06:39:12;;;;;;;;;;;;;;;;;;4992270;28;19921;-51
2020/12/06 06:41:37;;;;;;;;;;;;;;;;;;4992462;28;19921;-51
2020/12/06 06:44:03;;;;;;;;;;;;;;;;;;4991717;28;19910;-50
2020/12/06 06:46:28;;;;;;;;;;;;;;;;;;4992657;28;19929;-50
2020/12/06 06:48:53;;;;;;;;;;;;;;;;;;4991122;28;19964;-52
2020/12/06 06:51:18;;;;;;;;;;;;;;;;;;4992184;28;19991;-50
2020/12/06 06:53:43;;;;;;;;;;;;;;;;;;4991717;28;19914;-51
2020/12/06 06:56:08;;;;;;;;;;;;;;;;;;4992907;28;19910;-51
2020/12/06 06:58:34;;;;;;;;;;;;;;;;;;4991127;28;19913;-51
2020/12/06 07:00:59;;;;;;;;;;;;;;;;;;4992263;28;19909;-52
2020/12/06 07:03:24;;;;;;;;;;;;;;;;;;4991570;28;19914;-49
2020/12/06 07:05:49;;;;;;;;;;;;;;;;;;4994540;28;19909;-53
2020/12/06 07:08:17;;;;;;;;;;;;;;;;;;4996126;28;19914;-51
2020/12/06 07:10:42;;;;;;;;;;;;;;;;;;4995837;28;19910;-50
2020/12/06 07:13:08;;;;;;;;;;;;;;;;;;4994840;28;19933;-52
2020/12/06 07:15:33;;;;;;;;;;;;;;;;;;4995637;28;19920;-51
2020/12/06 07:17:58;;;;;;;;;;;;;;;;;;4995764;28;19980;-51
2020/12/06 07:20:23;;;;;;;;;;;;;;;;;;4995538;28;19969;-50
2020/12/06 07:22:49;;;;;;;;;;;;;;;;;;4994992;28;19946;-49
2020/12/06 07:25:14;;;;;;;;;;;;;;;;;;4995585;28;19914;-50
2020/12/06 07:27:39;;;;;;;;;;;;;;;;;;4995431;28;19920;-51
2020/12/06 07:30:04;;;;;;;;;;;;;;;;;;4995281;28;19945;-50
2020/12/06 07:32:29;;;;;;;;;;;;;;;;;;4994742;28;19964;-51
2020/12/06 07:34:54;;;;;;;;;;;;;;;;;;4995335;28;19914;-50
2020/12/06 07:37:21;;;;;;;;;;;;;;;;;;4995083;28;19960;-50
2020/12/06 07:39:46;;;;;;;;;;;;;;;;;;4995421;28;19945;-50
2020/12/06 07:42:11;;;;;;;;;;;;;;;;;;4994714;28;19948;-50
2020/12/06 07:44:36;;;;;;;;;;;;;;;;;;4994952;28;20295;-52
2020/12/06 07:47:01;;;;;;;;;;;;;;;;;;4995125;28;20394;-50
2020/12/06 07:49:26;;;;;;;;;;;;;;;;;;4994827;28;20374;-50
2020/12/06 07:51:52;;;;;;;;;;;;;;;;;;4993972;28;19988;-50
2020/12/06 07:54:17;;;;;;;;;;;;;;;;;;4994335;28;19964;-50
2020/12/06 07:56:42;;;;;;;;;;;;;;;;;;4994914;28;19917;-49
2020/12/06 07:59:07;;;;;;;;;;;;;;;;;;4993599;28;19914;-50
2020/12/06 08:01:32;;;;;;;;;;;;;;;;;;4994842;28;19910;-49
2020/12/06 08:03:57;;;;;;;;;;;;;;;;;;4990841;28;19917;-50
2020/12/06 08:06:22;;;;;;;;;;;;;;;;;;5009430;28;19916;-51
2020/12/06 08:08:48;;;;;;;;;;;;;;;;;;4997056;28;19910;-51
2020/12/06 08:11:14;;;;;;;;;;;;;;;;;;4996865;28;19968;-51
2020/12/06 08:13:39;;;;;;;;;;;;;;;;;;5013234;28;19925;-49
2020/12/06 08:16:04;;;;;;;;;;;;;;;;;;5014196;28;19910;-50
2020/12/06 08:18:29;;;;;;;;;;;;;;;;;;5014060;28;20321;-51
2020/12/06 08:20:54;;;;;;;;;;;;;;;;;;5002371;28;20310;-51
2020/12/06 08:23:19;;;;;;;;;;;;;;;;;;4992327;28;20264;-49
2020/12/06 08:25:44;;;;;;;;;;;;;;;;;;4994337;28;20000;-51
2020/12/06 08:28:09;;;;;;;;;;;;;;;;;;4994208;28;19933;-51
2020/12/06 08:30:34;;;;;;;;;;;;;;;;;;4994128;28;20299;-51
2020/12/06 08:33:00;;;;;;;;;;;;;;;;;;4993870;28;20260;-51
2020/12/06 08:35:25;;;;;;;;;;;;;;;;;;4994043;28;19909;-49
2020/12/06 08:37:50;;;;;;;;;;;;;;;;;;4998754;28;19914;-51
2020/12/06 08:40:15;;;;;;;;;;;;;;;;;;4993986;28;19914;-49
2020/12/06 08:42:40;;;;;;;;;;;;;;;;;;4993342;28;19948;-51
2020/12/06 08:45:05;;;;;;;;;;;;;;;;;;4993841;28;19910;-49
2020/12/06 08:47:30;;;;;;;;;;;;;;;;;;4993962;28;19916;-49
2020/12/06 08:49:55;;;;;;;;;;;;;;;;;;4993683;28;19918;-50
2020/12/06 08:52:21;;;;;;;;;;;;;;;;;;4993158;28;19910;-49
2020/12/06 08:54:48;;;;;;;;;;;;;;;;;;4993871;28;19989;-51
2020/12/06 08:57:14;;;;;;;;;;;;;;;;;;4993571;28;19916;-50
2020/12/06 08:59:39;;;;;;;;;;;;;;;;;;4992523;28;19924;-50
2020/12/06 09:02:04;;;;;;;;;;;;;;;;;;4993285;28;19953;-50
2020/12/06 09:04:30;;;;;;;;;;;;;;;;;;4993521;28;20012;-49
2020/12/06 09:06:57;;;;;;;;;;;;;;;;;;4993634;28;19910;-49
2020/12/06 09:09:22;;;;;;;;;;;;;;;;;;4993473;28;19910;-51
2020/12/06 09:11:47;;;;;;;;;;;;;;;;;;4999488;28;19916;-49
2020/12/06 09:14:12;;;;;;;;;;;;;;;;;;4996092;28;19917;-50
2020/12/06 09:16:37;;;;;;;;;;;;;;;;;;5011951;28;19909;-49
2020/12/06 09:19:02;;;;;;;;;;;;;;;;;;5009267;28;19914;-49
2020/12/06 09:21:28;;;;;;;;;;;;;;;;;;4993201;28;19960;-50
2020/12/06 09:23:53;;;;;;;;;;;;;;;;;;4992317;28;19909;-49
2020/12/06 09:26:18;;;;;;;;;;;;;;;;;;4993234;28;19910;-49
2020/12/06 09:28:43;;;;;;;;;;;;;;;;;;5005641;28;19910;-50
2020/12/06 09:31:09;;;;;;;;;;;;;;;;;;5012653;28;20385;-49
2020/12/06 09:33:34;;;;;;;;;;;;;;;;;;5012115;28;19917;-51
2020/12/06 09:36:00;;;;;;;;;;;;;;;;;;5012418;28;19910;-49
2020/12/06 09:38:25;;;;;;;;;;;;;;;;;;5012706;28;19964;-52
2020/12/06 09:40:50;;;;;;;;;;;;;;;;;;5012504;28;19941;-50
2020/12/06 09:43:15;;;;;;;;;;;;;;;;;;5011725;28;19913;-51
2020/12/06 09:45:43;;;;;;;;;;;;;;;;;;5000571;28;19910;-49
2020/12/06 09:48:08;;;;;;;;;;;;;;;;;;4993248;28;19910;-48
2020/12/06 09:50:33;;;;;;;;;;;;;;;;;;4992599;28;20013;-48
2020/12/06 09:52:59;;;;;;;;;;;;;;;;;;4992248;28;19969;-48
2020/12/06 09:55:24;;;;;;;;;;;;;;;;;;4992722;28;19965;-49
2020/12/06 09:57:49;;;;;;;;;;;;;;;;;;4992618;28;19914;-48
2020/12/06 10:00:14;;;;;;;;;;;;;;;;;;4992196;28;19972;-49
2020/12/06 10:02:39;;;;;;;;;;;;;;;;;;4991182;28;19918;-52
2020/12/06 10:05:04;;;;;;;;;;;;;;;;;;4992153;28;19924;-48
2020/12/06 10:07:29;;;;;;;;;;;;;;;;;;4992362;28;19913;-50
2020/12/06 10:09:54;;;;;;;;;;;;;;;;;;4992708;28;19914;-48
2020/12/06 10:12:20;;;;;;;;;;;;;;;;;;4991830;28;19910;-49
2020/12/06 10:14:45;;;;;;;;;;;;;;;;;;4992730;28;19960;-48
2020/12/06 10:17:10;;;;;;;;;;;;;;;;;;4991342;28;19910;-50
2020/12/06 10:19:35;;;;;;;;;;;;;;;;;;5002548;28;19918;-48
2020/12/06 10:22:00;;;;;;;;;;;;;;;;;;5009857;28;19932;-49
2020/12/06 10:24:25;;;;;;;;;;;;;;;;;;5012272;28;19909;-48
2020/12/06 10:26:50;;;;;;;;;;;;;;;;;;5012099;28;20384;-48
2020/12/06 10:29:15;;;;;;;;;;;;;;;;;;5011991;28;19963;-47
2020/12/06 10:31:41;;;;;;;;;;;;;;;;;;5012073;28;20446;-47
2020/12/06 10:34:06;;;;;;;;;;;;;;;;;;5011349;28;19909;-51
2020/12/06 10:36:31;;;;;;;;;;;;;;;;;;5012137;28;19933;-48
2020/12/06 10:38:56;;;;;;;;;;;;;;;;;;5011890;28;19913;-50
2020/12/06 10:41:21;;;;;;;;;;;;;;;;;;5015291;28;20264;-48
2020/12/06 10:43:46;;;;;;;;;;;;;;;;;;5014971;28;19909;-48
2020/12/06 10:46:11;;;;;;;;;;;;;;;;;;5012476;28;19910;-48
2020/12/06 10:48:36;;;;;;;;;;;;;;;;;;4996257;28;20294;-48
2020/12/06 10:51:02;;;;;;;;;;;;;;;;;;4996003;28;19980;-48
2020/12/06 10:53:27;;;;;;;;;;;;;;;;;;4995221;28;19965;-49
2020/12/06 10:55:52;;;;;;;;;;;;;;;;;;4996061;28;20330;-47
2020/12/06 10:58:17;;;;;;;;;;;;;;;;;;4995913;28;20403;-50
2020/12/06 11:00:42;;;;;;;;;;;;;;;;;;4996031;28;20383;-49
2020/12/06 11:03:07;;;;;;;;;;;;;;;;;;4995203;28;19910;-47
2020/12/06 11:05:32;;;;;;;;;;;;;;;;;;4995696;28;19909;-48
2020/12/06 11:07:57;;;;;;;;;;;;;;;;;;4995811;28;19905;-48
2020/12/06 11:10:22;;;;;;;;;;;;;;;;;;4995565;28;19909;-50
2020/12/06 11:12:48;;;;;;;;;;;;;;;;;;4994990;28;20433;-49
2020/12/06 11:15:13;;;;;;;;;;;;;;;;;;4995562;28;19917;-50
2020/12/06 11:17:38;;;;;;;;;;;;;;;;;;4995592;28;19920;-48
2020/12/06 11:20:03;;;;;;;;;;;;;;;;;;4995331;28;19910;-50
2020/12/06 11:22:28;;;;;;;;;;;;;;;;;;4993901;28;19917;-48
2020/12/06 11:24:53;;;;;;;;;;;;;;;;;;4995444;28;20466;-49
2020/12/06 11:27:18;;;;;;;;;;;;;;;;;;4995260;28;19917;-46
2020/12/06 11:29:44;;;;;;;;;;;;;;;;;;4995442;28;20260;-48
2020/12/06 11:32:09;;;;;;;;;;;;;;;;;;4994661;28;19929;-48
2020/12/06 11:34:34;;;;;;;;;;;;;;;;;;4995270;28;20287;-48
2020/12/06 11:36:59;;;;;;;;;;;;;;;;;;4995247;28;19917;-51
2020/12/06 11:39:24;;;;;;;;;;;;;;;;;;4995080;28;19968;-49
2020/12/06 11:41:49;;;;;;;;;;;;;;;;;;4995015;28;20312;-50
2020/12/06 11:44:14;;;;;;;;;;;;;;;;;;4994532;28;20342;-48
2020/12/06 11:46:40;;;;;;;;;;;;;;;;;;4994996;28;20005;-49
2020/12/06 11:49:05;;;;;;;;;;;;;;;;;;4994990;28;19909;-50
2020/12/06 11:51:30;;;;;;;;;;;;;;;;;;4994659;28;20303;-49
2020/12/06 11:53:55;;;;;;;;;;;;;;;;;;4994399;28;19914;-49
2020/12/06 11:58:47;;;;;;;;;;;;;;;;;;5049165;23;19925;-47
2020/12/06 12:01:12;;;;;;;;;;;;;;;;;;4994897;28;19964;-48
2020/12/06 12:03:37;;;;;;;;;;;;;;;;;;4992797;28;20323;-47
2020/12/06 12:06:02;;;;;;;;;;;;;;;;;;4994760;28;19917;-47
2020/12/06 12:08:27;;;;;;;;;;;;;;;;;;4994489;28;19909;-47
2020/12/06 12:10:52;;;;;;;;;;;;;;;;;;4992653;28;19987;-48
2020/12/06 12:13:18;;;;;;;;;;;;;;;;;;4993429;28;19910;-47
2020/12/06 12:15:43;;;;;;;;;;;;;;;;;;4994536;28;20330;-47
2020/12/06 12:18:09;;;;;;;;;;;;;;;;;;4993127;28;20516;-50
2020/12/06 12:20:34;;;;;;;;;;;;;;;;;;5012587;28;19917;-48
2020/12/06 12:22:59;;;;;;;;;;;;;;;;;;5013329;28;19914;-47
2020/12/06 12:25:24;;;;;;;;;;;;;;;;;;5013762;28;19909;-48
2020/12/06 12:27:49;;;;;;;;;;;;;;;;;;5011950;28;19920;-47
2020/12/06 12:30:15;;;;;;;;;;;;;;;;;;4994207;28;20127;-48
2020/12/06 12:32:40;;;;;;;;;;;;;;;;;;4992308;28;19929;-48
2020/12/06 12:35:05;;;;;;;;;;;;;;;;;;4992789;28;19917;-46
2020/12/06 12:37:30;;;;;;;;;;;;;;;;;;4993943;28;19918;-47
2020/12/06 12:39:55;;;;;;;;;;;;;;;;;;4992741;28;19910;-48
2020/12/06 12:42:20;;;;;;;;;;;;;;;;;;4993333;28;19916;-46
2020/12/06 12:44:45;;;;;;;;;;;;;;;;;;4993915;28;20333;-46
2020/12/06 12:47:10;;;;;;;;;;;;;;;;;;4993894;28;20235;-51
2020/12/06 12:49:36;;;;;;;;;;;;;;;;;;4993953;28;19913;-47
2020/12/06 12:52:01;;;;;;;;;;;;;;;;;;4993181;28;20286;-46
2020/12/06 12:54:26;;;;;;;;;;;;;;;;;;4992514;28;19917;-45
2020/12/06 12:56:51;;;;;;;;;;;;;;;;;;4993396;28;19914;-47
2020/12/06 12:59:16;;;;;;;;;;;;;;;;;;4993615;28;19914;-47
2020/12/06 13:01:42;;;;;;;;;;;;;;;;;;4986555;28;19918;-48
2020/12/06 13:04:07;;;;;;;;;;;;;;;;;;4987717;28;19910;-49
2020/12/06 13:06:32;;;;;;;;;;;;;;;;;;4991649;28;20363;-47
2020/12/06 13:08:57;;;;;;;;;;;;;;;;;;4991254;28;19949;-48
2020/12/06 13:11:22;;;;;;;;;;;;;;;;;;4991608;28;19935;-48
2020/12/06 13:13:47;;;;;;;;;;;;;;;;;;4989541;28;20402;-48
2020/12/06 13:16:12;;;;;;;;;;;;;;;;;;4990358;28;20351;-49
2020/12/06 13:18:38;;;;;;;;;;;;;;;;;;4990000;28;19923;-48
2020/12/06 13:21:03;;;;;;;;;;;;;;;;;;4991045;28;19910;-46
2020/12/06 13:23:28;;;;;;;;;;;;;;;;;;4990052;28;19918;-46
2020/12/06 13:25:53;;;;;;;;;;;;;;;;;;4991362;28;19936;-46
2020/12/06 13:28:18;;;;;;;;;;;;;;;;;;4990856;28;19913;-48
2020/12/06 13:30:43;;;;;;;;;;;;;;;;;;4991301;28;19913;-47
2020/12/06 13:33:08;;;;;;;;;;;;;;;;;;4987805;28;19918;-46
2020/12/06 13:35:33;;;;;;;;;;;;;;;;;;4991191;28;19956;-50
2020/12/06 13:37:58;;;;;;;;;;;;;;;;;;4990666;28;20243;-47
2020/12/06 13:40:24;;;;;;;;;;;;;;;;;;4991177;28;19910;-48
2020/12/06 13:42:49;;;;;;;;;;;;;;;;;;4989814;28;19910;-46
2020/12/06 13:45:14;;;;;;;;;;;;;;;;;;4991121;28;20283;-48
2020/12/06 13:47:39;;;;;;;;;;;;;;;;;;4989855;28;19914;-46
2020/12/06 13:50:04;;;;;;;;;;;;;;;;;;4990160;28;19929;-48
2020/12/06 13:52:29;;;;;;;;;;;;;;;;;;4990063;28;19914;-46
2020/12/06 13:54:55;;;;;;;;;;;;;;;;;;4990852;28;19933;-46
2020/12/06 13:57:20;;;;;;;;;;;;;;;;;;4990232;28;19918;-49
2020/12/06 13:59:45;;;;;;;;;;;;;;;;;;4990731;28;19910;-49
2020/12/06 14:02:10;;;;;;;;;;;;;;;;;;4988987;28;19965;-50
2020/12/06 14:04:35;;;;;;;;;;;;;;;;;;4990544;28;19910;-48
2020/12/06 14:07:00;;;;;;;;;;;;;;;;;;4990337;28;19909;-50
2020/12/06 14:09:25;;;;;;;;;;;;;;;;;;4990537;28;19910;-49
2020/12/06 14:11:50;;;;;;;;;;;;;;;;;;4990289;28;19925;-46
2020/12/06 14:14:16;;;;;;;;;;;;;;;;;;4991518;28;19980;-47
2020/12/06 14:16:41;;;;;;;;;;;;;;;;;;4993527;28;19909;-47
2020/12/06 14:19:06;;;;;;;;;;;;;;;;;;4993016;28;19918;-47
2020/12/06 14:21:31;;;;;;;;;;;;;;;;;;5002754;28;19917;-45
2020/12/06 14:23:56;;;;;;;;;;;;;;;;;;5003033;28;20287;-50
2020/12/06 14:26:21;;;;;;;;;;;;;;;;;;5014131;28;20007;-47
2020/12/06 14:28:46;;;;;;;;;;;;;;;;;;4999374;28;20012;-49
2020/12/06 14:31:12;;;;;;;;;;;;;;;;;;4994557;28;20004;-48
2020/12/06 14:33:37;;;;;;;;;;;;;;;;;;4992306;28;19906;-47
2020/12/06 14:36:02;;;;;;;;;;;;;;;;;;4997759;28;19918;-47
2020/12/06 14:38:27;;;;;;;;;;;;;;;;;;5013493;28;19913;-47
2020/12/06 14:40:52;;;;;;;;;;;;;;;;;;5013755;28;19936;-46
2020/12/06 14:43:18;;;;;;;;;;;;;;;;;;5007494;28;19921;-46
2020/12/06 14:45:43;;;;;;;;;;;;;;;;;;4994296;28;19918;-45
2020/12/06 14:48:08;;;;;;;;;;;;;;;;;;4992805;28;19982;-46
2020/12/06 14:50:33;;;;;;;;;;;;;;;;;;4993865;28;19939;-45
2020/12/06 14:52:59;;;;;;;;;;;;;;;;;;4992798;28;19996;-47
2020/12/06 14:55:25;;;;;;;;;;;;;;;;;;4992230;28;19914;-47
2020/12/06 14:57:50;;;;;;;;;;;;;;;;;;4993101;28;19917;-48
2020/12/06 15:00:15;;;;;;;;;;;;;;;;;;4993554;28;20319;-50
2020/12/06 15:02:40;;;;;;;;;;;;;;;;;;4990056;28;20271;-48
2020/12/06 15:05:05;;;;;;;;;;;;;;;;;;4993567;28;19916;-49
2020/12/06 15:07:30;;;;;;;;;;;;;;;;;;4991232;28;19914;-47
2020/12/06 15:09:55;;;;;;;;;;;;;;;;;;4993516;28;20299;-48
2020/12/06 15:12:20;;;;;;;;;;;;;;;;;;4992206;28;19913;-47
2020/12/06 15:14:46;;;;;;;;;;;;;;;;;;4993325;28;20056;-46
2020/12/06 15:17:11;;;;;;;;;;;;;;;;;;4992181;28;19948;-48
2020/12/06 15:19:36;;;;;;;;;;;;;;;;;;4993122;28;20406;-46
2020/12/06 15:22:02;;;;;;;;;;;;;;;;;;4990658;28;19920;-46
2020/12/06 15:24:27;;;;;;;;;;;;;;;;;;4993020;28;19910;-48
2020/12/06 15:26:52;;;;;;;;;;;;;;;;;;4992403;28;19932;-46
2020/12/06 15:29:17;;;;;;;;;;;;;;;;;;5012285;28;19913;-48
2020/12/06 15:31:42;;;;;;;;;;;;;;;;;;5011268;28;19920;-46
2020/12/06 15:34:07;;;;;;;;;;;;;;;;;;5011567;28;19910;-50
2020/12/06 15:36:32;;;;;;;;;;;;;;;;;;5010753;28;19910;-47
2020/12/06 15:38:58;;;;;;;;;;;;;;;;;;5012116;28;19914;-50
2020/12/06 15:41:23;;;;;;;;;;;;;;;;;;5012128;28;19921;-48
2020/12/06 15:43:48;;;;;;;;;;;;;;;;;;5010912;28;19910;-48
2020/12/06 15:46:13;;;;;;;;;;;;;;;;;;5012495;28;19967;-44
2020/12/06 15:48:38;;;;;;;;;;;;;;;;;;5010808;28;19929;-48
2020/12/06 15:51:04;;;;;;;;;;;;;;;;;;5010314;28;19964;-48
2020/12/06 15:53:29;;;;;;;;;;;;;;;;;;5011045;28;20000;-46
2020/12/06 15:55:54;;;;;;;;;;;;;;;;;;5010243;28;19910;-48
2020/12/06 15:58:19;;;;;;;;;;;;;;;;;;5011313;28;19944;-48
2020/12/06 16:00:44;;;;;;;;;;;;;;;;;;4999858;28;19914;-47
2020/12/06 16:03:10;;;;;;;;;;;;;;;;;;4990357;28;20221;-46
2020/12/06 16:05:35;;;;;;;;;;;;;;;;;;4992091;28;19909;-46
2020/12/06 16:08:01;;;;;;;;;;;;;;;;;;4990810;28;19921;-46
2020/12/06 16:10:26;;;;;;;;;;;;;;;;;;4992175;28;20402;-47
2020/12/06 16:12:51;;;;;;;;;;;;;;;;;;4989238;28;19984;-47
2020/12/06 16:15:16;;;;;;;;;;;;;;;;;;4992441;28;20285;-46
2020/12/06 16:17:41;;;;;;;;;;;;;;;;;;4990809;28;19917;-47
2020/12/06 16:20:06;;;;;;;;;;;;;;;;;;4992001;28;19936;-46
2020/12/06 16:22:31;;;;;;;;;;;;;;;;;;4988696;28;20458;-46
2020/12/06 16:24:56;;;;;;;;;;;;;;;;;;4991652;28;19983;-51
2020/12/06 16:27:21;;;;;;;;;;;;;;;;;;4995933;28;19909;-46
2020/12/06 16:29:47;;;;;;;;;;;;;;;;;;4992425;28;19968;-50
2020/12/06 16:32:12;;;;;;;;;;;;;;;;;;4989823;28;19917;-47